Time;durP1;ratioP1;P1;durP2;ratioP2;P2;SDS_P1;SDS_P2;PMS_P1;PMS_P2;Temp;Humidity;BMP_temperature;BMP_pressure;BME280_temperature;BME280_humidity;BME280_pressure;Samples;Min_cycle;Max_cycle;Signal;HPM_P1;HPM_P2
2022/04/17 00:00:22;;;;;;;6.60;3.95;;;;;;;;;;5052087;28;20025;-76
2022/04/17 00:02:48;;;;;;;8.52;4.25;;;;;;;;;;5053537;28;20025;-77
2022/04/17 00:05:13;;;;;;;7.28;4.30;;;;;;;;;;5053447;28;20024;-77
2022/04/17 00:07:39;;;;;;;7.45;4.40;;;;;;;;;;5051981;28;20470;-77
2022/04/17 00:10:05;;;;;;;6.28;4.07;;;;;;;;;;5053351;28;20402;-76
2022/04/17 00:12:31;;;;;;;7.97;4.35;;;;;;;;;;5053175;28;20401;-77
2022/04/17 00:14:56;;;;;;;8.57;4.47;;;;;;;;;;5053124;28;20028;-77
2022/04/17 00:17:22;;;;;;;7.50;4.53;;;;;;;;;;5053228;28;20506;-77
2022/04/17 00:19:47;;;;;;;7.75;4.38;;;;;;;;;;5053030;28;20090;-76
2022/04/17 00:22:13;;;;;;;8.73;4.20;;;;;;;;;;5053378;28;20025;-76
2022/04/17 00:24:39;;;;;;;6.13;4.13;;;;;;;;;;5053032;28;20039;-76
2022/04/17 00:27:04;;;;;;;9.93;4.55;;;;;;;;;;5053173;28;20044;-76
2022/04/17 00:29:29;;;;;;;8.65;4.78;;;;;;;;;;5053487;28;20458;-76
2022/04/17 00:31:56;;;;;;;8.65;4.15;;;;;;;;;;5053887;28;20082;-77
2022/04/17 00:34:22;;;;;;;6.97;3.78;;;;;;;;;;5052614;28;20108;-77
2022/04/17 00:36:48;;;;;;;6.82;4.00;;;;;;;;;;5053226;28;20056;-76
2022/04/17 00:39:13;;;;;;;7.43;4.07;;;;;;;;;;5052848;28;20025;-76
2022/04/17 00:41:38;;;;;;;7.18;4.30;;;;;;;;;;5053009;28;20051;-77
2022/04/17 00:44:10;;;;;;;5.97;3.75;;;;;;;;;;5052909;28;20044;-77
2022/04/17 00:46:36;;;;;;;7.60;4.07;;;;;;;;;;5053071;28;20125;-77
2022/04/17 00:49:01;;;;;;;5.38;3.70;;;;;;;;;;5052839;28;20104;-77
2022/04/17 00:51:26;;;;;;;6.97;3.88;;;;;;;;;;5053956;28;20367;-77
2022/04/17 00:53:53;;;;;;;7.30;3.85;;;;;;;;;;5056852;28;20444;-77
2022/04/17 00:56:19;;;;;;;8.70;3.90;;;;;;;;;;5056766;28;20078;-77
2022/04/17 00:58:44;;;;;;;7.55;4.07;;;;;;;;;;5055446;28;20060;-77
2022/04/17 01:01:10;;;;;;;7.95;4.03;;;;;;;;;;5056743;28;20409;-76
2022/04/17 01:03:35;;;;;;;7.22;4.07;;;;;;;;;;5056814;28;20510;-76
2022/04/17 01:06:01;;;;;;;7.18;4.10;;;;;;;;;;5056696;28;20202;-77
2022/04/17 01:08:27;;;;;;;7.13;3.83;;;;;;;;;;5056818;28;20028;-78
2022/04/17 01:10:52;;;;;;;6.28;4.05;;;;;;;;;;5056888;28;20029;-77
2022/04/17 01:13:18;;;;;;;10.27;4.03;;;;;;;;;;5055165;28;20033;-77
2022/04/17 01:15:44;;;;;;;8.73;3.95;;;;;;;;;;5056373;28;20052;-77
2022/04/17 01:18:10;;;;;;;7.38;4.05;;;;;;;;;;5056347;28;20032;-77
2022/04/17 01:20:36;;;;;;;9.07;4.07;;;;;;;;;;5055985;28;20396;-77
2022/04/17 01:28:29;;;;;;;7.97;4.30;;;;;;;;;;5056362;28;20036;-76
2022/04/17 01:30:56;;;;;;;7.55;4.10;;;;;;;;;;5057604;28;20029;-76
2022/04/17 01:33:23;;;;;;;7.97;3.65;;;;;;;;;;5054880;28;20028;-76
2022/04/17 01:35:48;;;;;;;6.28;3.88;;;;;;;;;;5056342;28;20029;-76
2022/04/17 01:38:14;;;;;;;6.70;3.90;;;;;;;;;;5055918;28;20021;-77
2022/04/17 01:40:39;;;;;;;6.88;3.95;;;;;;;;;;5056102;28;20534;-77
2022/04/17 01:43:11;;;;;;;7.55;4.20;;;;;;;;;;5055837;28;20064;-77
2022/04/17 01:45:37;;;;;;;6.15;3.80;;;;;;;;;;5056094;28;20021;-77
2022/04/17 01:48:02;;;;;;;7.60;4.25;;;;;;;;;;5054369;28;20032;-77
2022/04/17 01:50:28;;;;;;;7.53;4.22;;;;;;;;;;5055643;28;20123;-77
2022/04/17 01:52:53;;;;;;;6.07;3.67;;;;;;;;;;5054381;28;20528;-77
2022/04/17 01:55:19;;;;;;;7.30;4.20;;;;;;;;;;5055600;28;20029;-77
2022/04/17 01:57:45;;;;;;;8.13;4.50;;;;;;;;;;5055541;28;20075;-77
2022/04/17 02:00:11;;;;;;;7.53;4.97;;;;;;;;;;5055553;28;20082;-77
2022/04/17 02:02:36;;;;;;;10.77;4.78;;;;;;;;;;5053687;28;20031;-77
2022/04/17 02:05:01;;;;;;;9.32;4.63;;;;;;;;;;5053981;28;20017;-77
2022/04/17 02:07:26;;;;;;;7.22;4.57;;;;;;;;;;5055546;28;20109;-77
2022/04/17 02:09:52;;;;;;;10.30;4.55;;;;;;;;;;5055294;28;20555;-77
2022/04/17 02:12:17;;;;;;;9.77;4.80;;;;;;;;;;5055292;28;20104;-77
2022/04/17 02:14:42;;;;;;;8.57;4.30;;;;;;;;;;5055091;28;20120;-77
2022/04/17 02:17:07;;;;;;;11.55;4.80;;;;;;;;;;5055118;28;20035;-77
2022/04/17 02:19:33;;;;;;;8.45;4.68;;;;;;;;;;5055430;28;20053;-77
2022/04/17 02:21:58;;;;;;;7.60;4.45;;;;;;;;;;5055008;28;20029;-77
2022/04/17 02:24:23;;;;;;;9.27;4.60;;;;;;;;;;5053752;28;20075;-77
2022/04/17 02:26:48;;;;;;;8.05;4.70;;;;;;;;;;5053687;28;20029;-77
2022/04/17 02:29:14;;;;;;;9.20;4.60;;;;;;;;;;5054847;28;20071;-77
2022/04/17 02:31:39;;;;;;;7.35;4.25;;;;;;;;;;5055301;28;20086;-77
2022/04/17 02:34:05;;;;;;;7.20;4.30;;;;;;;;;;5054732;28;20048;-77
2022/04/17 02:36:31;;;;;;;9.90;4.88;;;;;;;;;;5054918;28;20024;-77
2022/04/17 02:38:56;;;;;;;9.63;5.00;;;;;;;;;;5054920;28;20056;-77
2022/04/17 02:41:22;;;;;;;8.32;4.55;;;;;;;;;;5054733;28;20032;-77
2022/04/17 02:43:47;;;;;;;12.88;4.95;;;;;;;;;;5054678;28;20032;-77
2022/04/17 02:47:42;;;;;;;8.05;4.90;;;;;;;;;;5054706;28;20540;-77
2022/04/17 02:48:58;;;;;;;10.82;5.30;;;;;;;;;;5054376;28;20028;-76
2022/04/17 02:51:23;;;;;;;8.60;4.50;;;;;;;;;;5054549;28;20025;-78
2022/04/17 02:53:48;;;;;;;10.02;5.35;;;;;;;;;;5055636;28;20033;-76
2022/04/17 02:56:13;;;;;;;8.18;4.47;;;;;;;;;;5053146;28;20115;-76
2022/04/17 02:58:39;;;;;;;7.93;4.75;;;;;;;;;;5053175;28;20057;-77
2022/04/17 03:06:31;;;;;;;7.93;4.68;;;;;;;;;;5054352;28;20075;-77
2022/04/17 03:08:56;;;;;;;13.43;4.97;;;;;;;;;;5052879;28;20037;-76
2022/04/17 03:11:22;;;;;;;8.15;4.43;;;;;;;;;;5054077;28;20094;-76
2022/04/17 03:13:48;;;;;;;9.85;4.63;;;;;;;;;;5054046;28;20029;-76
2022/04/17 03:16:13;;;;;;;8.32;4.75;;;;;;;;;;5053546;28;20112;-76
2022/04/17 03:18:38;;;;;;;11.02;5.07;;;;;;;;;;5054034;28;20078;-77
2022/04/17 03:21:04;;;;;;;10.55;4.85;;;;;;;;;;5052931;28;20024;-76
2022/04/17 03:23:29;;;;;;;10.30;5.07;;;;;;;;;;5053923;28;20025;-77
2022/04/17 03:25:54;;;;;;;9.80;4.97;;;;;;;;;;5053123;28;20021;-77
2022/04/17 03:28:20;;;;;;;8.75;5.00;;;;;;;;;;5053708;28;20048;-77
2022/04/17 03:30:45;;;;;;;6.90;4.20;;;;;;;;;;5052578;28;20025;-77
2022/04/17 03:33:12;;;;;;;7.97;4.50;;;;;;;;;;5053866;28;20028;-77
2022/04/17 03:35:37;;;;;;;8.45;4.95;;;;;;;;;;5054269;28;20446;-77
2022/04/17 03:38:03;;;;;;;7.43;4.57;;;;;;;;;;5052433;28;20103;-77
2022/04/17 03:40:28;;;;;;;11.80;4.97;;;;;;;;;;5052392;28;20024;-77
2022/04/17 03:42:53;;;;;;;9.77;5.07;;;;;;;;;;5053572;28;20108;-77
2022/04/17 03:45:19;;;;;;;8.88;5.10;;;;;;;;;;5053534;28;20033;-77
2022/04/17 03:47:44;;;;;;;11.02;5.18;;;;;;;;;;5053475;28;20108;-77
2022/04/17 03:50:10;;;;;;;7.70;4.72;;;;;;;;;;5053722;28;20442;-77
2022/04/17 03:52:43;;;;;;;10.40;5.20;;;;;;;;;;5053507;28;20025;-77
2022/04/17 03:55:09;;;;;;;10.90;4.82;;;;;;;;;;5052109;28;20029;-76
2022/04/17 03:57:35;;;;;;;12.02;5.45;;;;;;;;;;5053030;28;20386;-76
2022/04/17 04:00:01;;;;;;;9.05;4.97;;;;;;;;;;5053539;28;20020;-76
2022/04/17 04:02:29;;;;;;;9.93;5.47;;;;;;;;;;5053257;28;20040;-77
2022/04/17 04:04:55;;;;;;;9.73;4.75;;;;;;;;;;5053222;28;20020;-76
2022/04/17 04:07:20;;;;;;;10.10;5.15;;;;;;;;;;5053170;28;20017;-77
2022/04/17 04:09:45;;;;;;;12.50;5.13;;;;;;;;;;5053134;28;20028;-77
2022/04/17 04:12:11;;;;;;;10.38;5.13;;;;;;;;;;5051871;28;20123;-77
2022/04/17 04:14:37;;;;;;;10.38;5.40;;;;;;;;;;5053083;28;20441;-77
2022/04/17 04:17:03;;;;;;;8.88;5.10;;;;;;;;;;5053159;28;20108;-77
2022/04/17 04:19:28;;;;;;;9.27;5.00;;;;;;;;;;5053099;28;20473;-77
2022/04/17 04:21:53;;;;;;;10.13;5.20;;;;;;;;;;5053132;28;20426;-77
2022/04/17 04:24:19;;;;;;;10.30;5.25;;;;;;;;;;5052993;28;20394;-77
2022/04/17 04:26:44;;;;;;;9.95;5.15;;;;;;;;;;5053004;28;20021;-77
2022/04/17 04:29:10;;;;;;;8.25;5.25;;;;;;;;;;5052992;28;20490;-77
2022/04/17 04:31:36;;;;;;;9.50;5.22;;;;;;;;;;5053197;28;20074;-77
2022/04/17 04:34:02;;;;;;;8.95;5.03;;;;;;;;;;5052984;28;20025;-77
2022/04/17 04:36:27;;;;;;;9.85;5.57;;;;;;;;;;5051681;28;20021;-77
2022/04/17 04:38:52;;;;;;;10.75;5.90;;;;;;;;;;5052921;28;20402;-77
2022/04/17 04:41:17;;;;;;;12.07;6.25;;;;;;;;;;5052938;28;20393;-77
2022/04/17 04:43:42;;;;;;;10.07;6.07;;;;;;;;;;5053147;28;20025;-77
2022/04/17 04:46:08;;;;;;;11.38;6.25;;;;;;;;;;5052951;28;20024;-76
2022/04/17 04:51:19;;;;;;;10.68;6.18;;;;;;;;;;5052841;28;20036;-77
2022/04/17 04:53:44;;;;;;;11.05;6.75;;;;;;;;;;5052750;28;20398;-76
2022/04/17 04:56:09;;;;;;;9.60;6.00;;;;;;;;;;5052714;28;20032;-76
2022/04/17 04:58:35;;;;;;;10.55;6.28;;;;;;;;;;5052685;28;20033;-76
2022/04/17 05:01:00;;;;;;;9.93;6.18;;;;;;;;;;5052675;28;20020;-76
2022/04/17 05:03:26;;;;;;;10.43;5.28;;;;;;;;;;5052668;28;20040;-77
2022/04/17 05:05:52;;;;;;;10.70;6.00;;;;;;;;;;5052678;28;20025;-76
2022/04/17 05:08:19;;;;;;;12.23;5.72;;;;;;;;;;5052029;28;20033;-77
2022/04/17 05:10:44;;;;;;;9.23;5.60;;;;;;;;;;5053478;28;20028;-77
2022/04/17 05:13:10;;;;;;;10.02;5.32;;;;;;;;;;5052521;28;20402;-77
2022/04/17 05:15:35;;;;;;;10.15;5.35;;;;;;;;;;5052540;28;20029;-77
2022/04/17 05:18:00;;;;;;;10.50;5.70;;;;;;;;;;5052390;28;20037;-77
2022/04/17 05:20:26;;;;;;;10.10;5.85;;;;;;;;;;5052569;28;20036;-77
2022/04/17 05:22:56;;;;;;;14.13;7.10;;;;;;;;;;5053460;28;20113;-77
2022/04/17 05:25:22;;;;;;;9.45;5.43;;;;;;;;;;5051426;28;20017;-77
2022/04/17 05:27:48;;;;;;;8.30;4.93;;;;;;;;;;5052533;28;20470;-77
2022/04/17 05:30:13;;;;;;;14.00;5.60;;;;;;;;;;5051106;28;20040;-77
2022/04/17 05:32:38;;;;;;;9.15;5.18;;;;;;;;;;5052462;28;20029;-77
2022/04/17 05:35:04;;;;;;;8.85;5.07;;;;;;;;;;5052489;28;20024;-77
2022/04/17 05:37:29;;;;;;;8.88;4.40;;;;;;;;;;5050887;28;20029;-77
2022/04/17 05:39:54;;;;;;;8.68;5.05;;;;;;;;;;5055696;28;20020;-76
2022/04/17 05:42:20;;;;;;;9.10;5.67;;;;;;;;;;5055856;28;20120;-76
2022/04/17 05:44:49;;;;;;;7.65;4.63;;;;;;;;;;5056006;28;20286;-76
2022/04/17 05:47:14;;;;;;;8.68;5.30;;;;;;;;;;5055902;28;20028;-76
2022/04/17 05:49:40;;;;;;;7.13;5.22;;;;;;;;;;5055727;28;20405;-76
2022/04/17 05:52:05;;;;;;;9.15;5.15;;;;;;;;;;5055685;28;20107;-76
2022/04/17 05:54:31;;;;;;;8.07;5.22;;;;;;;;;;5055713;28;20037;-77
2022/04/17 05:56:56;;;;;;;10.05;5.43;;;;;;;;;;5055092;28;20067;-76
2022/04/17 05:59:22;;;;;;;9.52;5.65;;;;;;;;;;5055530;28;20048;-77
2022/04/17 06:01:47;;;;;;;9.80;5.50;;;;;;;;;;5055637;28;20024;-77
2022/04/17 06:04:12;;;;;;;10.32;5.85;;;;;;;;;;5055881;28;20037;-77
2022/04/17 06:06:38;;;;;;;9.03;5.33;;;;;;;;;;5055677;28;20382;-77
2022/04/17 06:09:03;;;;;;;7.07;4.90;;;;;;;;;;5055360;28;20636;-77
2022/04/17 06:11:28;;;;;;;10.40;5.57;;;;;;;;;;5054261;28;20445;-77
2022/04/17 06:13:54;;;;;;;7.57;5.40;;;;;;;;;;5055085;28;20123;-77
2022/04/17 06:16:19;;;;;;;10.77;5.35;;;;;;;;;;5054779;28;20285;-77
2022/04/17 06:18:45;;;;;;;8.98;5.55;;;;;;;;;;5055175;28;20024;-77
2022/04/17 06:21:11;;;;;;;9.60;5.82;;;;;;;;;;5054191;28;20021;-77
2022/04/17 06:23:36;;;;;;;9.25;5.63;;;;;;;;;;5055518;28;20028;-77
2022/04/17 06:26:02;;;;;;;10.40;5.78;;;;;;;;;;5055157;28;20517;-77
2022/04/17 06:28:27;;;;;;;8.98;5.15;;;;;;;;;;5055686;28;20056;-77
2022/04/17 06:30:52;;;;;;;11.95;6.50;;;;;;;;;;5055421;28;20037;-77
2022/04/17 06:33:18;;;;;;;8.27;6.05;;;;;;;;;;5055066;28;20041;-76
2022/04/17 06:35:43;;;;;;;8.18;5.72;;;;;;;;;;5053900;28;20128;-77
2022/04/17 06:38:10;;;;;;;12.93;6.00;;;;;;;;;;5055140;28;20037;-77
2022/04/17 06:40:36;;;;;;;9.18;5.75;;;;;;;;;;5054929;28;20262;-77
2022/04/17 06:43:11;;;;;;;9.88;5.90;;;;;;;;;;5054802;28;20557;-77
2022/04/17 06:45:38;;;;;;;9.05;5.53;;;;;;;;;;5054671;28;20025;-77
2022/04/17 06:48:16;;;;;;;10.57;5.18;;;;;;;;;;5053531;28;20474;-77
2022/04/17 06:50:46;;;;;;;10.55;5.72;;;;;;;;;;5054796;28;20033;-77
2022/04/17 06:53:12;;;;;;;10.18;5.88;;;;;;;;;;5054540;28;20029;-76
2022/04/17 06:55:38;;;;;;;9.85;6.00;;;;;;;;;;5054773;28;20087;-77
2022/04/17 06:58:04;;;;;;;10.43;6.35;;;;;;;;;;5054679;28;20035;-78
2022/04/17 07:00:30;;;;;;;9.23;5.78;;;;;;;;;;5055058;28;20017;-77
2022/04/17 07:02:55;;;;;;;7.90;5.32;;;;;;;;;;5054569;28;20390;-77
2022/04/17 07:05:20;;;;;;;8.80;5.60;;;;;;;;;;5053167;28;20390;-77
2022/04/17 07:07:46;;;;;;;8.48;5.40;;;;;;;;;;5053027;28;20039;-77
2022/04/17 07:10:11;;;;;;;10.02;5.10;;;;;;;;;;5054817;28;20021;-77
2022/04/17 07:12:37;;;;;;;7.82;5.00;;;;;;;;;;5054761;28;20505;-77
2022/04/17 07:15:05;;;;;;;11.95;5.40;;;;;;;;;;5057506;28;20021;-77
2022/04/17 07:17:35;;;;;;;9.93;5.40;;;;;;;;;;5058802;28;20040;-76
2022/04/17 07:20:01;;;;;;;9.38;5.70;;;;;;;;;;5059387;28;20036;-77
2022/04/17 07:22:26;;;;;;;10.52;5.35;;;;;;;;;;5059326;28;20398;-76
2022/04/17 07:24:54;;;;;;;8.23;5.15;;;;;;;;;;5060005;28;20073;-76
2022/04/17 07:27:20;;;;;;;8.18;5.05;;;;;;;;;;5060570;28;20025;-76
2022/04/17 07:29:45;;;;;;;9.18;4.72;;;;;;;;;;5060306;28;20016;-76
2022/04/17 07:32:10;;;;;;;9.07;5.18;;;;;;;;;;5060041;28;20500;-75
2022/04/17 07:34:36;;;;;;;10.07;5.63;;;;;;;;;;5058619;28;20020;-76
2022/04/17 07:37:01;;;;;;;8.73;4.73;;;;;;;;;;5058915;28;20345;-76
2022/04/17 07:39:26;;;;;;;10.35;4.90;;;;;;;;;;5059576;28;20306;-77
2022/04/17 07:41:51;;;;;;;8.53;4.93;;;;;;;;;;5059574;28;20033;-77
2022/04/17 07:44:17;;;;;;;11.23;4.60;;;;;;;;;;5052630;28;20670;-78
2022/04/17 07:46:42;;;;;;;7.47;4.80;;;;;;;;;;5053669;28;20059;-77
2022/04/17 07:49:08;;;;;;;10.18;5.30;;;;;;;;;;5053835;28;20254;-77
2022/04/17 07:51:34;;;;;;;8.95;5.05;;;;;;;;;;5053830;28;20429;-77
2022/04/17 07:53:59;;;;;;;9.82;5.70;;;;;;;;;;5053751;28;20033;-77
2022/04/17 07:56:24;;;;;;;9.27;4.75;;;;;;;;;;5053046;28;20033;-77
2022/04/17 07:58:50;;;;;;;7.05;4.60;;;;;;;;;;5053484;28;20155;-77
2022/04/17 08:01:16;;;;;;;9.50;4.43;;;;;;;;;;5052892;28;20033;-77
2022/04/17 08:06:10;;;;;;;9.27;4.40;;;;;;;;;;5053218;28;20363;-76
2022/04/17 08:08:39;;;;;;;8.25;4.30;;;;;;;;;;5053508;28;20023;-76
2022/04/17 08:11:05;;;;;;;7.82;4.47;;;;;;;;;;5053385;28;20083;-77
2022/04/17 08:13:31;;;;;;;6.20;3.95;;;;;;;;;;5053314;28;20029;-76
2022/04/17 08:15:56;;;;;;;8.25;4.30;;;;;;;;;;5053393;28;20444;-77
2022/04/17 08:18:21;;;;;;;9.00;4.60;;;;;;;;;;5053015;28;20028;-77
2022/04/17 08:20:47;;;;;;;6.75;4.45;;;;;;;;;;5053443;28;20181;-78
2022/04/17 08:23:12;;;;;;;9.43;4.55;;;;;;;;;;5053829;28;20492;-77
2022/04/17 08:25:38;;;;;;;7.25;4.40;;;;;;;;;;5051866;28;20028;-77
2022/04/17 08:28:04;;;;;;;7.65;4.75;;;;;;;;;;5052351;28;20393;-77
2022/04/17 08:30:30;;;;;;;9.55;4.78;;;;;;;;;;5052047;28;20028;-78
2022/04/17 08:32:57;;;;;;;11.63;4.88;;;;;;;;;;5053009;28;20424;-77
2022/04/17 08:35:22;;;;;;;8.57;4.75;;;;;;;;;;5053271;28;20033;-78
2022/04/17 08:37:48;;;;;;;7.45;4.22;;;;;;;;;;5051801;28;20501;-76
2022/04/17 08:40:14;;;;;;;7.78;4.57;;;;;;;;;;5052815;28;20044;-77
2022/04/17 08:42:40;;;;;;;7.90;4.40;;;;;;;;;;5052062;28;20025;-78
2022/04/17 08:45:07;;;;;;;7.70;4.18;;;;;;;;;;5053151;28;20036;-77
2022/04/17 08:47:34;;;;;;;6.47;4.43;;;;;;;;;;5052823;28;20028;-77
2022/04/17 08:49:59;;;;;;;4.97;3.38;;;;;;;;;;5053466;28;20045;-77
2022/04/17 08:52:28;;;;;;;7.35;3.00;;;;;;;;;;5051643;28;20478;-77
2022/04/17 08:54:54;;;;;;;5.22;2.83;;;;;;;;;;5052963;28;20025;-77
2022/04/17 08:57:21;;;;;;;4.28;3.05;;;;;;;;;;5052951;28;20151;-77
2022/04/17 08:59:46;;;;;;;5.40;3.05;;;;;;;;;;5051741;28;20021;-77
2022/04/17 09:02:12;;;;;;;6.27;2.43;;;;;;;;;;5052839;28;20394;-77
2022/04/17 09:04:38;;;;;;;6.65;2.50;;;;;;;;;;5052750;28;20619;-76
2022/04/17 09:07:10;;;;;;;4.82;2.42;;;;;;;;;;5053034;28;20067;-77
2022/04/17 09:09:50;;;;;;;4.13;2.22;;;;;;;;;;5054057;28;20108;-77
2022/04/17 09:12:20;;;;;;;2.05;1.52;;;;;;;;;;5054109;28;20532;-77
2022/04/17 09:14:46;;;;;;;2.83;1.63;;;;;;;;;;5055550;28;20078;-77
2022/04/17 09:17:11;;;;;;;3.83;1.90;;;;;;;;;;5055400;28;20021;-78
2022/04/17 09:19:37;;;;;;;3.45;1.90;;;;;;;;;;5055214;28;20021;-77
2022/04/17 09:22:02;;;;;;;2.25;1.52;;;;;;;;;;5056530;28;20032;-76
2022/04/17 09:24:28;;;;;;;3.03;1.55;;;;;;;;;;5056187;28;20059;-76
2022/04/17 09:26:58;;;;;;;2.22;1.35;;;;;;;;;;5056478;28;20025;-75
2022/04/17 09:29:25;;;;;;;3.25;1.52;;;;;;;;;;5056306;28;20025;-77
2022/04/17 09:32:02;;;;;;;2.13;1.33;;;;;;;;;;5056105;28;20494;-77
2022/04/17 09:34:40;;;;;;;2.53;1.35;;;;;;;;;;5056461;28;20029;-77
2022/04/17 09:37:11;;;;;;;3.10;1.40;;;;;;;;;;5056456;28;20091;-78
2022/04/17 09:39:36;;;;;;;2.63;1.48;;;;;;;;;;5056188;28;20028;-75
2022/04/17 09:42:03;;;;;;;3.10;1.40;;;;;;;;;;5056109;28;20095;-76
2022/04/17 09:44:45;;;;;;;2.83;1.35;;;;;;;;;;5055896;28;20307;-76
2022/04/17 09:47:12;;;;;;;4.30;1.42;;;;;;;;;;5055943;28;20389;-76
2022/04/17 09:49:49;;;;;;;4.07;1.50;;;;;;;;;;5055861;28;20025;-76
2022/04/17 09:52:14;;;;;;;2.70;1.58;;;;;;;;;;5055641;28;20029;-76
2022/04/17 09:54:40;;;;;;;2.93;1.50;;;;;;;;;;5056247;28;20051;-76
2022/04/17 09:57:05;;;;;;;2.47;1.42;;;;;;;;;;5055898;28;20258;-77
2022/04/17 09:59:31;;;;;;;4.50;1.52;;;;;;;;;;5056137;28;20083;-76
2022/04/17 10:01:57;;;;;;;4.10;1.65;;;;;;;;;;5055835;28;20099;-77
2022/04/17 10:04:24;;;;;;;3.28;1.15;;;;;;;;;;5055811;28;20056;-77
2022/04/17 10:06:51;;;;;;;2.88;1.52;;;;;;;;;;5055552;28;20033;-76
2022/04/17 10:09:17;;;;;;;2.75;1.45;;;;;;;;;;5055925;28;20025;-77
2022/04/17 10:11:43;;;;;;;2.45;1.50;;;;;;;;;;5055572;28;20024;-76
2022/04/17 10:14:08;;;;;;;1.88;1.40;;;;;;;;;;5055480;28;20036;-76
2022/04/17 10:16:34;;;;;;;2.80;1.40;;;;;;;;;;5055079;28;20057;-74
2022/04/17 10:19:05;;;;;;;2.35;1.50;;;;;;;;;;5055910;28;20390;-78
2022/04/17 10:21:35;;;;;;;2.72;1.50;;;;;;;;;;5056701;28;20055;-73
2022/04/17 10:24:03;;;;;;;6.65;1.70;;;;;;;;;;5054783;28;20554;-77
2022/04/17 10:26:32;;;;;;;2.33;1.33;;;;;;;;;;5053624;28;20017;-76
2022/04/17 10:29:01;;;;;;;2.78;1.60;;;;;;;;;;5054809;28;20028;-76
2022/04/17 10:31:40;;;;;;;5.43;1.58;;;;;;;;;;5055490;28;20021;-78
2022/04/17 10:34:39;;;;;;;4.13;1.60;;;;;;;;;;5055957;28;20029;-76
2022/04/17 10:37:27;;;;;;;2.22;1.52;;;;;;;;;;5055599;28;20428;-77
2022/04/17 10:39:57;;;;;;;1.58;0.95;;;;;;;;;;5055443;28;20029;-77
2022/04/17 10:42:33;;;;;;;2.90;1.33;;;;;;;;;;5054063;28;20116;-77
2022/04/17 10:45:03;;;;;;;2.25;1.10;;;;;;;;;;5055736;28;20056;-77
2022/04/17 10:47:30;;;;;;;1.35;1.00;;;;;;;;;;5055075;28;20025;-77
2022/04/17 10:49:56;;;;;;;4.30;1.33;;;;;;;;;;5055140;28;20025;-77
2022/04/17 10:52:29;;;;;;;7.32;1.63;;;;;;;;;;5054846;28;20493;-77
2022/04/17 10:54:55;;;;;;;3.65;1.67;;;;;;;;;;5055439;28;20108;-77
2022/04/17 10:57:24;;;;;;;3.45;1.58;;;;;;;;;;5053096;28;20141;-77
2022/04/17 10:59:50;;;;;;;2.13;1.25;;;;;;;;;;5053320;28;20166;-77
2022/04/17 11:02:18;;;;;;;2.90;0.93;;;;;;;;;;5054386;28;20476;-77
2022/04/17 11:04:54;;;;;;;4.85;1.10;;;;;;;;;;5053103;28;20017;-77
2022/04/17 11:07:27;;;;;;;1.85;1.15;;;;;;;;;;5054295;28;20166;-76
2022/04/17 11:10:20;;;;;;;2.45;1.48;;;;;;;;;;5054567;28;20046;-76
2022/04/17 11:12:53;;;;;;;2.10;1.30;;;;;;;;;;5053779;28;20390;-77
2022/04/17 11:15:19;;;;;;;3.10;1.30;;;;;;;;;;5052979;28;20045;-77
2022/04/17 11:17:46;;;;;;;2.27;1.30;;;;;;;;;;5054247;28;20021;-77
2022/04/17 11:20:13;;;;;;;3.97;1.60;;;;;;;;;;5054538;28;20094;-77
2022/04/17 11:22:38;;;;;;;3.28;1.65;;;;;;;;;;5053241;28;20032;-77
2022/04/17 11:25:06;;;;;;;2.53;1.45;;;;;;;;;;5054630;28;20025;-77
2022/04/17 11:27:31;;;;;;;3.47;1.77;;;;;;;;;;5054035;28;20386;-77
2022/04/17 11:29:56;;;;;;;3.90;1.70;;;;;;;;;;5054128;28;20017;-77
2022/04/17 11:32:27;;;;;;;2.85;1.38;;;;;;;;;;5054134;28;20104;-78
2022/04/17 11:34:53;;;;;;;2.92;1.40;;;;;;;;;;5053676;28;20581;-77
2022/04/17 11:37:22;;;;;;;2.30;1.20;;;;;;;;;;5052995;28;20056;-78
2022/04/17 11:39:48;;;;;;;1.63;1.02;;;;;;;;;;5054887;28;20436;-77
2022/04/17 11:42:14;;;;;;;1.92;1.30;;;;;;;;;;5052965;28;20029;-77
2022/04/17 11:44:40;;;;;;;2.83;1.40;;;;;;;;;;5054144;28;20024;-77
2022/04/17 11:47:06;;;;;;;4.28;1.40;;;;;;;;;;5054245;28;20028;-77
2022/04/17 11:49:32;;;;;;;3.20;1.30;;;;;;;;;;5054469;28;20382;-77
2022/04/17 11:52:15;;;;;;;1.20;0.80;;;;;;;;;;5054564;28;20486;-78
2022/04/17 11:54:41;;;;;;;1.25;0.80;;;;;;;;;;5054448;28;20029;-77
2022/04/17 11:57:07;;;;;;;1.58;1.02;;;;;;;;;;5053968;28;20048;-77
2022/04/17 11:59:48;;;;;;;2.50;1.33;;;;;;;;;;5053081;28;20021;-77
2022/04/17 12:02:16;;;;;;;1.40;1.10;;;;;;;;;;5053859;28;20028;-77
2022/04/17 12:04:43;;;;;;;1.88;1.38;;;;;;;;;;5053264;28;20028;-76
2022/04/17 12:07:13;;;;;;;2.50;1.23;;;;;;;;;;5053708;28;20112;-78
2022/04/17 12:09:39;;;;;;;2.75;1.30;;;;;;;;;;5052656;28;20127;-78
2022/04/17 12:12:17;;;;;;;1.77;1.15;;;;;;;;;;5053648;28;20082;-77
2022/04/17 12:14:44;;;;;;;1.00;0.82;;;;;;;;;;5053312;28;20029;-77
2022/04/17 12:17:09;;;;;;;1.55;1.08;;;;;;;;;;5053212;28;20047;-76
2022/04/17 12:19:35;;;;;;;1.50;1.10;;;;;;;;;;5053218;28;20390;-77
2022/04/17 12:22:13;;;;;;;2.20;1.13;;;;;;;;;;5053414;28;20103;-77
2022/04/17 12:24:43;;;;;;;2.13;1.23;;;;;;;;;;5053130;28;20052;-76
2022/04/17 12:27:10;;;;;;;3.20;1.35;;;;;;;;;;5053548;28;20035;-77
2022/04/17 12:29:38;;;;;;;2.45;1.10;;;;;;;;;;5052654;28;20063;-77
2022/04/17 12:32:12;;;;;;;2.70;1.38;;;;;;;;;;5053325;28;20025;-77
2022/04/17 12:34:39;;;;;;;;;;;;;;;;;;5053459;28;20441;-77
2022/04/17 12:37:20;;;;;;;2.65;1.35;;;;;;;;;;5053711;28;20400;-77
2022/04/17 12:39:45;;;;;;;1.60;0.98;;;;;;;;;;5053688;28;20039;-77
2022/04/17 12:42:20;;;;;;;2.50;1.30;;;;;;;;;;5053081;28;20389;-77
2022/04/17 12:44:47;;;;;;;2.90;1.30;;;;;;;;;;5053568;28;20478;-77
2022/04/17 12:47:14;;;;;;;2.40;0.95;;;;;;;;;;5054264;28;20432;-78
2022/04/17 12:49:40;;;;;;;1.52;1.15;;;;;;;;;;5056701;28;20033;-77
2022/04/17 12:52:06;;;;;;;2.10;1.35;;;;;;;;;;5057450;28;20085;-77
2022/04/17 12:54:32;;;;;;;2.22;1.25;;;;;;;;;;5057673;28;20037;-76
2022/04/17 12:57:05;;;;;;;3.55;1.20;;;;;;;;;;5057416;28;20085;-77
2022/04/17 12:59:41;;;;;;;2.90;1.50;;;;;;;;;;5055753;28;20025;-77
2022/04/17 13:02:14;;;;;;;3.28;1.60;;;;;;;;;;5056725;28;20029;-77
2022/04/17 13:04:42;;;;;;;3.90;1.52;;;;;;;;;;5057391;28;20478;-77
2022/04/17 13:07:10;;;;;;;1.95;1.38;;;;;;;;;;5055232;28;20082;-77
2022/04/17 13:09:35;;;;;;;3.28;1.48;;;;;;;;;;5057337;28;20021;-77
2022/04/17 13:12:00;;;;;;;2.08;1.17;;;;;;;;;;5055913;28;20032;-78
2022/04/17 13:14:26;;;;;;;3.15;1.20;;;;;;;;;;5056941;28;20037;-77
2022/04/17 13:17:00;;;;;;;2.30;1.53;;;;;;;;;;5056911;28;20032;-78
2022/04/17 13:19:27;;;;;;;2.55;1.23;;;;;;;;;;5056296;28;20264;-77
2022/04/17 13:21:54;;;;;;;5.20;1.40;;;;;;;;;;5056131;28;20028;-77
2022/04/17 13:24:21;;;;;;;1.63;1.20;;;;;;;;;;5055003;28;20036;-77
2022/04/17 13:26:47;;;;;;;2.38;1.25;;;;;;;;;;5056406;28;20082;-77
2022/04/17 13:29:12;;;;;;;1.45;0.90;;;;;;;;;;5056169;28;20025;-77
2022/04/17 13:31:39;;;;;;;2.03;1.10;;;;;;;;;;5056125;28;20028;-77
2022/04/17 13:34:05;;;;;;;2.00;1.15;;;;;;;;;;5055980;28;20029;-76
2022/04/17 13:36:30;;;;;;;1.15;0.88;;;;;;;;;;5056478;28;20029;-77
2022/04/17 13:38:56;;;;;;;1.25;0.82;;;;;;;;;;5055251;28;20021;-77
2022/04/17 13:41:22;;;;;;;2.25;1.10;;;;;;;;;;5056781;28;20021;-78
2022/04/17 13:43:48;;;;;;;3.13;1.35;;;;;;;;;;5056648;28;20385;-78
2022/04/17 13:46:13;;;;;;;2.28;1.33;;;;;;;;;;5056514;28;20083;-78
2022/04/17 13:48:38;;;;;;;1.47;1.10;;;;;;;;;;5055243;28;20040;-77
2022/04/17 13:51:05;;;;;;;2.03;1.20;;;;;;;;;;5056717;28;20250;-76
2022/04/17 13:53:34;;;;;;;3.08;1.30;;;;;;;;;;5055959;28;20053;-76
2022/04/17 13:55:59;;;;;;;1.75;1.10;;;;;;;;;;5056095;28;20108;-78
2022/04/17 13:58:25;;;;;;;2.78;1.13;;;;;;;;;;5054148;28;20045;-77
2022/04/17 14:00:50;;;;;;;2.47;1.20;;;;;;;;;;5055097;28;20027;-77
2022/04/17 14:03:16;;;;;;;2.45;1.20;;;;;;;;;;5055574;28;20029;-77
2022/04/17 14:05:42;;;;;;;1.63;1.15;;;;;;;;;;5056441;28;20081;-77
2022/04/17 14:08:07;;;;;;;3.28;1.30;;;;;;;;;;5056402;28;20048;-78
2022/04/17 14:10:33;;;;;;;2.60;0.80;;;;;;;;;;5057179;28;20024;-78
2022/04/17 14:12:58;;;;;;;2.58;1.10;;;;;;;;;;5056612;28;20040;-77
2022/04/17 14:15:24;;;;;;;3.90;1.38;;;;;;;;;;5055904;28;20390;-76
2022/04/17 14:17:49;;;;;;;2.03;1.10;;;;;;;;;;5055393;28;20028;-77
2022/04/17 14:20:15;;;;;;;2.75;1.30;;;;;;;;;;5056068;28;20150;-77
2022/04/17 14:22:40;;;;;;;2.13;1.30;;;;;;;;;;5054527;28;20025;-77
2022/04/17 14:25:06;;;;;;;2.47;1.27;;;;;;;;;;5054977;28;20303;-77
2022/04/17 14:27:31;;;;;;;1.73;1.20;;;;;;;;;;5055151;28;20031;-78
2022/04/17 14:29:56;;;;;;;1.73;0.90;;;;;;;;;;5055844;28;20027;-79
2022/04/17 14:32:21;;;;;;;5.93;1.30;;;;;;;;;;5055494;28;20029;-77
2022/04/17 14:34:47;;;;;;;3.33;1.73;;;;;;;;;;5054102;28;20452;-77
2022/04/17 14:37:12;;;;;;;3.80;1.73;;;;;;;;;;5055936;28;20028;-77
2022/04/17 14:39:41;;;;;;;3.05;1.40;;;;;;;;;;5054110;28;20033;-77
2022/04/17 14:42:07;;;;;;;3.38;1.60;;;;;;;;;;5055035;28;20017;-77
2022/04/17 14:44:32;;;;;;;1.70;1.20;;;;;;;;;;5055011;28;20482;-77
2022/04/17 14:46:57;;;;;;;2.88;1.30;;;;;;;;;;5054620;28;20025;-77
2022/04/17 14:49:23;;;;;;;1.45;1.20;;;;;;;;;;5054947;28;20474;-76
2022/04/17 14:51:50;;;;;;;2.78;1.20;;;;;;;;;;5054675;28;20104;-77
2022/04/17 14:54:15;;;;;;;4.22;1.42;;;;;;;;;;5054856;28;20024;-76